sensor_id;sensor_type;location;lat;lon;timestamp;P1;durP1;ratioP1;P2;durP2;ratioP2
11346;SDS011;5728;42.722;23.258;2023-05-16T00:00:57;19.57;;;14.63;;
11346;SDS011;5728;42.722;23.258;2023-05-16T00:03:26;18.70;;;14.87;;
11346;SDS011;5728;42.722;23.258;2023-05-16T00:05:54;20.63;;;15.33;;
11346;SDS011;5728;42.722;23.258;2023-05-16T00:08:22;22.23;;;15.60;;
11346;SDS011;5728;42.722;23.258;2023-05-16T00:10:49;20.67;;;15.90;;
11346;SDS011;5728;42.722;23.258;2023-05-16T00:13:17;29.87;;;16.30;;
11346;SDS011;5728;42.722;23.258;2023-05-16T00:15:46;21.97;;;15.73;;
11346;SDS011;5728;42.722;23.258;2023-05-16T00:18:13;21.70;;;15.70;;
11346;SDS011;5728;42.722;23.258;2023-05-16T00:20:41;20.20;;;15.30;;
11346;SDS011;5728;42.722;23.258;2023-05-16T00:23:07;21.52;;;15.73;;
11346;SDS011;5728;42.722;23.258;2023-05-16T00:25:34;19.95;;;15.02;;
11346;SDS011;5728;42.722;23.258;2023-05-16T00:28:01;20.47;;;15.23;;
11346;SDS011;5728;42.722;23.258;2023-05-16T00:30:29;25.77;;;14.63;;
11346;SDS011;5728;42.722;23.258;2023-05-16T00:32:56;19.23;;;14.47;;
11346;SDS011;5728;42.722;23.258;2023-05-16T00:35:23;22.73;;;15.25;;
11346;SDS011;5728;42.722;23.258;2023-05-16T00:37:50;21.63;;;15.05;;
11346;SDS011;5728;42.722;23.258;2023-05-16T00:40:16;21.13;;;14.43;;
11346;SDS011;5728;42.722;23.258;2023-05-16T00:42:43;17.80;;;13.52;;
11346;SDS011;5728;42.722;23.258;2023-05-16T00:45:10;19.48;;;14.27;;
11346;SDS011;5728;42.722;23.258;2023-05-16T00:47:38;20.73;;;14.52;;
11346;SDS011;5728;42.722;23.258;2023-05-16T00:50:05;17.23;;;13.07;;
11346;SDS011;5728;42.722;23.258;2023-05-16T00:52:32;20.85;;;13.95;;
11346;SDS011;5728;42.722;23.258;2023-05-16T00:55:00;20.45;;;14.75;;
11346;SDS011;5728;42.722;23.258;2023-05-16T00:57:27;17.35;;;12.82;;
11346;SDS011;5728;42.722;23.258;2023-05-16T00:59:55;19.92;;;13.70;;
11346;SDS011;5728;42.722;23.258;2023-05-16T01:02:21;19.20;;;13.25;;
11346;SDS011;5728;42.722;23.258;2023-05-16T01:04:53;16.42;;;12.30;;
11346;SDS011;5728;42.722;23.258;2023-05-16T01:07:20;17.00;;;12.52;;
11346;SDS011;5728;42.722;23.258;2023-05-16T01:09:47;14.27;;;12.45;;
11346;SDS011;5728;42.722;23.258;2023-05-16T01:12:16;18.63;;;13.60;;
11346;SDS011;5728;42.722;23.258;2023-05-16T01:14:50;17.13;;;12.80;;
11346;SDS011;5728;42.722;23.258;2023-05-16T01:17:28;15.80;;;12.55;;
11346;SDS011;5728;42.722;23.258;2023-05-16T01:20:04;20.85;;;13.65;;
11346;SDS011;5728;42.722;23.258;2023-05-16T01:22:51;17.65;;;12.65;;
11346;SDS011;5728;42.722;23.258;2023-05-16T01:25:36;14.70;;;12.82;;
11346;SDS011;5728;42.722;23.258;2023-05-16T01:28:13;16.43;;;11.73;;
11346;SDS011;5728;42.722;23.258;2023-05-16T01:30:42;19.17;;;13.75;;
11346;SDS011;5728;42.722;23.258;2023-05-16T01:33:09;13.38;;;11.77;;
11346;SDS011;5728;42.722;23.258;2023-05-16T01:35:38;17.60;;;12.85;;
11346;SDS011;5728;42.722;23.258;2023-05-16T01:38:10;17.90;;;12.70;;
11346;SDS011;5728;42.722;23.258;2023-05-16T01:40:44;19.40;;;12.43;;
11346;SDS011;5728;42.722;23.258;2023-05-16T01:43:20;15.95;;;12.13;;
11346;SDS011;5728;42.722;23.258;2023-05-16T01:45:57;17.15;;;12.50;;
11346;SDS011;5728;42.722;23.258;2023-05-16T01:48:29;17.58;;;12.68;;
11346;SDS011;5728;42.722;23.258;2023-05-16T01:51:00;17.38;;;14.20;;
11346;SDS011;5728;42.722;23.258;2023-05-16T01:53:31;20.33;;;14.88;;
11346;SDS011;5728;42.722;23.258;2023-05-16T01:56:02;19.10;;;14.40;;
11346;SDS011;5728;42.722;23.258;2023-05-16T01:58:32;19.23;;;15.35;;
11346;SDS011;5728;42.722;23.258;2023-05-16T02:01:00;26.05;;;15.93;;
11346;SDS011;5728;42.722;23.258;2023-05-16T02:03:29;20.20;;;15.17;;
11346;SDS011;5728;42.722;23.258;2023-05-16T02:05:55;19.73;;;15.82;;
11346;SDS011;5728;42.722;23.258;2023-05-16T02:08:22;25.95;;;18.83;;
11346;SDS011;5728;42.722;23.258;2023-05-16T02:10:50;26.20;;;17.40;;
11346;SDS011;5728;42.722;23.258;2023-05-16T02:13:17;25.25;;;16.60;;
11346;SDS011;5728;42.722;23.258;2023-05-16T02:15:45;22.23;;;17.23;;
11346;SDS011;5728;42.722;23.258;2023-05-16T02:18:12;24.30;;;17.60;;
11346;SDS011;5728;42.722;23.258;2023-05-16T02:20:38;29.27;;;16.30;;
11346;SDS011;5728;42.722;23.258;2023-05-16T02:23:05;21.95;;;16.98;;
11346;SDS011;5728;42.722;23.258;2023-05-16T02:25:32;20.20;;;15.73;;
11346;SDS011;5728;42.722;23.258;2023-05-16T02:27:59;26.90;;;15.53;;
11346;SDS011;5728;42.722;23.258;2023-05-16T02:30:25;17.58;;;15.48;;
11346;SDS011;5728;42.722;23.258;2023-05-16T02:32:53;23.17;;;15.10;;
11346;SDS011;5728;42.722;23.258;2023-05-16T02:35:20;21.77;;;16.58;;
11346;SDS011;5728;42.722;23.258;2023-05-16T02:37:47;18.40;;;15.23;;
11346;SDS011;5728;42.722;23.258;2023-05-16T02:40:14;21.40;;;14.53;;
11346;SDS011;5728;42.722;23.258;2023-05-16T02:42:40;20.50;;;15.60;;
11346;SDS011;5728;42.722;23.258;2023-05-16T02:45:07;23.97;;;16.97;;
11346;SDS011;5728;42.722;23.258;2023-05-16T02:47:35;21.93;;;15.73;;
11346;SDS011;5728;42.722;23.258;2023-05-16T02:50:03;25.67;;;16.73;;
11346;SDS011;5728;42.722;23.258;2023-05-16T02:52:30;19.50;;;15.40;;
11346;SDS011;5728;42.722;23.258;2023-05-16T02:54:57;21.97;;;16.73;;
11346;SDS011;5728;42.722;23.258;2023-05-16T02:57:23;24.03;;;15.10;;
11346;SDS011;5728;42.722;23.258;2023-05-16T02:59:50;21.63;;;16.30;;
11346;SDS011;5728;42.722;23.258;2023-05-16T03:02:18;26.17;;;15.97;;
11346;SDS011;5728;42.722;23.258;2023-05-16T03:04:44;22.60;;;14.97;;
11346;SDS011;5728;42.722;23.258;2023-05-16T03:07:12;17.53;;;14.57;;
11346;SDS011;5728;42.722;23.258;2023-05-16T03:09:39;22.57;;;15.57;;
11346;SDS011;5728;42.722;23.258;2023-05-16T03:12:06;23.63;;;15.85;;
11346;SDS011;5728;42.722;23.258;2023-05-16T03:14:33;20.63;;;14.67;;
11346;SDS011;5728;42.722;23.258;2023-05-16T03:16:59;23.93;;;15.73;;
11346;SDS011;5728;42.722;23.258;2023-05-16T03:19:26;23.10;;;15.97;;
11346;SDS011;5728;42.722;23.258;2023-05-16T03:21:53;23.97;;;14.83;;
11346;SDS011;5728;42.722;23.258;2023-05-16T03:24:21;20.67;;;15.73;;
11346;SDS011;5728;42.722;23.258;2023-05-16T03:26:47;22.23;;;15.53;;
11346;SDS011;5728;42.722;23.258;2023-05-16T03:29:14;24.37;;;15.83;;
11346;SDS011;5728;42.722;23.258;2023-05-16T03:31:41;23.07;;;15.17;;
11346;SDS011;5728;42.722;23.258;2023-05-16T03:34:08;20.07;;;16.57;;
11346;SDS011;5728;42.722;23.258;2023-05-16T03:36:34;24.20;;;16.40;;
11346;SDS011;5728;42.722;23.258;2023-05-16T03:39:01;21.93;;;16.07;;
11346;SDS011;5728;42.722;23.258;2023-05-16T03:41:29;21.00;;;16.57;;
11346;SDS011;5728;42.722;23.258;2023-05-16T03:43:56;25.07;;;16.00;;
11346;SDS011;5728;42.722;23.258;2023-05-16T03:46:23;21.30;;;15.83;;
11346;SDS011;5728;42.722;23.258;2023-05-16T03:48:50;26.67;;;16.93;;
11346;SDS011;5728;42.722;23.258;2023-05-16T03:51:16;23.03;;;16.17;;
11346;SDS011;5728;42.722;23.258;2023-05-16T03:53:43;25.43;;;17.37;;
11346;SDS011;5728;42.722;23.258;2023-05-16T03:56:10;26.10;;;17.37;;
11346;SDS011;5728;42.722;23.258;2023-05-16T03:58:38;23.73;;;16.10;;
11346;SDS011;5728;42.722;23.258;2023-05-16T04:01:04;18.97;;;15.23;;
11346;SDS011;5728;42.722;23.258;2023-05-16T04:03:31;29.67;;;17.37;;
11346;SDS011;5728;42.722;23.258;2023-05-16T04:05:58;22.23;;;17.47;;
11346;SDS011;5728;42.722;23.258;2023-05-16T04:08:25;24.37;;;16.53;;
11346;SDS011;5728;42.722;23.258;2023-05-16T04:10:51;22.77;;;16.83;;
11346;SDS011;5728;42.722;23.258;2023-05-16T04:13:18;20.63;;;15.50;;
11346;SDS011;5728;42.722;23.258;2023-05-16T04:15:47;23.80;;;16.97;;
11346;SDS011;5728;42.722;23.258;2023-05-16T04:18:13;21.03;;;16.27;;
11346;SDS011;5728;42.722;23.258;2023-05-16T04:20:41;22.17;;;15.37;;
11346;SDS011;5728;42.722;23.258;2023-05-16T04:23:08;20.13;;;14.63;;
11346;SDS011;5728;42.722;23.258;2023-05-16T04:25:36;29.80;;;16.30;;
11346;SDS011;5728;42.722;23.258;2023-05-16T04:28:03;19.23;;;16.03;;
11346;SDS011;5728;42.722;23.258;2023-05-16T04:30:30;21.87;;;15.40;;
11346;SDS011;5728;42.722;23.258;2023-05-16T04:32:58;30.43;;;16.90;;
11346;SDS011;5728;42.722;23.258;2023-05-16T04:35:27;20.47;;;16.10;;
11346;SDS011;5728;42.722;23.258;2023-05-16T04:37:54;20.73;;;15.97;;
11346;SDS011;5728;42.722;23.258;2023-05-16T04:40:21;23.88;;;15.68;;
11346;SDS011;5728;42.722;23.258;2023-05-16T04:42:49;29.13;;;16.07;;
11346;SDS011;5728;42.722;23.258;2023-05-16T04:45:16;31.07;;;17.73;;
11346;SDS011;5728;42.722;23.258;2023-05-16T04:47:43;21.20;;;15.50;;
11346;SDS011;5728;42.722;23.258;2023-05-16T04:50:11;25.03;;;16.87;;
11346;SDS011;5728;42.722;23.258;2023-05-16T04:52:39;26.60;;;16.00;;
11346;SDS011;5728;42.722;23.258;2023-05-16T04:55:06;23.17;;;16.03;;
11346;SDS011;5728;42.722;23.258;2023-05-16T04:57:33;22.07;;;17.20;;
11346;SDS011;5728;42.722;23.258;2023-05-16T05:00:00;26.58;;;16.00;;
11346;SDS011;5728;42.722;23.258;2023-05-16T05:02:30;27.50;;;15.48;;
11346;SDS011;5728;42.722;23.258;2023-05-16T05:04:57;21.87;;;15.20;;
11346;SDS011;5728;42.722;23.258;2023-05-16T05:07:25;24.77;;;15.47;;
11346;SDS011;5728;42.722;23.258;2023-05-16T05:09:53;19.58;;;15.32;;
11346;SDS011;5728;42.722;23.258;2023-05-16T05:12:20;19.58;;;14.90;;
11346;SDS011;5728;42.722;23.258;2023-05-16T05:14:46;18.42;;;13.95;;
11346;SDS011;5728;42.722;23.258;2023-05-16T05:17:13;21.87;;;15.20;;
11346;SDS011;5728;42.722;23.258;2023-05-16T05:19:40;23.27;;;14.33;;
11346;SDS011;5728;42.722;23.258;2023-05-16T05:22:07;24.17;;;15.83;;
11346;SDS011;5728;42.722;23.258;2023-05-16T05:24:35;27.33;;;15.40;;
11346;SDS011;5728;42.722;23.258;2023-05-16T05:27:02;21.87;;;14.83;;
11346;SDS011;5728;42.722;23.258;2023-05-16T05:29:29;19.40;;;14.30;;
11346;SDS011;5728;42.722;23.258;2023-05-16T05:31:56;27.92;;;17.30;;
11346;SDS011;5728;42.722;23.258;2023-05-16T05:34:23;20.42;;;16.65;;
11346;SDS011;5728;42.722;23.258;2023-05-16T05:36:50;25.70;;;17.67;;
11346;SDS011;5728;42.722;23.258;2023-05-16T05:39:17;24.10;;;15.65;;
11346;SDS011;5728;42.722;23.258;2023-05-16T05:41:45;28.70;;;16.85;;
11346;SDS011;5728;42.722;23.258;2023-05-16T05:44:12;30.50;;;15.30;;
11346;SDS011;5728;42.722;23.258;2023-05-16T05:46:38;28.13;;;16.52;;
11346;SDS011;5728;42.722;23.258;2023-05-16T05:49:05;29.27;;;16.83;;
11346;SDS011;5728;42.722;23.258;2023-05-16T05:51:32;27.23;;;16.30;;
11346;SDS011;5728;42.722;23.258;2023-05-16T05:53:59;27.75;;;17.73;;
11346;SDS011;5728;42.722;23.258;2023-05-16T05:56:27;22.25;;;16.23;;
11346;SDS011;5728;42.722;23.258;2023-05-16T05:58:55;24.83;;;14.23;;
11346;SDS011;5728;42.722;23.258;2023-05-16T06:01:22;26.63;;;13.88;;
11346;SDS011;5728;42.722;23.258;2023-05-16T06:03:49;22.15;;;14.10;;
11346;SDS011;5728;42.722;23.258;2023-05-16T06:06:16;25.25;;;13.20;;
11346;SDS011;5728;42.722;23.258;2023-05-16T06:08:43;19.02;;;13.15;;
11346;SDS011;5728;42.722;23.258;2023-05-16T06:11:09;22.85;;;12.18;;
11346;SDS011;5728;42.722;23.258;2023-05-16T06:13:36;24.33;;;14.10;;
11346;SDS011;5728;42.722;23.258;2023-05-16T06:16:05;20.88;;;12.93;;
11346;SDS011;5728;42.722;23.258;2023-05-16T06:18:32;21.95;;;12.30;;
11346;SDS011;5728;42.722;23.258;2023-05-16T06:20:58;23.13;;;12.23;;
11346;SDS011;5728;42.722;23.258;2023-05-16T06:23:25;23.10;;;14.35;;
11346;SDS011;5728;42.722;23.258;2023-05-16T06:25:52;19.80;;;12.73;;
11346;SDS011;5728;42.722;23.258;2023-05-16T06:28:18;21.00;;;14.00;;
11346;SDS011;5728;42.722;23.258;2023-05-16T06:30:45;29.40;;;13.43;;
11346;SDS011;5728;42.722;23.258;2023-05-16T06:33:14;21.92;;;12.85;;
11346;SDS011;5728;42.722;23.258;2023-05-16T06:35:40;13.52;;;9.73;;
11346;SDS011;5728;42.722;23.258;2023-05-16T06:38:07;14.93;;;10.88;;
11346;SDS011;5728;42.722;23.258;2023-05-16T06:40:34;14.30;;;9.98;;
11346;SDS011;5728;42.722;23.258;2023-05-16T06:43:02;15.32;;;10.68;;
11346;SDS011;5728;42.722;23.258;2023-05-16T06:45:29;13.57;;;9.95;;
11346;SDS011;5728;42.722;23.258;2023-05-16T06:47:55;13.90;;;10.90;;
11346;SDS011;5728;42.722;23.258;2023-05-16T06:50:23;19.42;;;9.82;;
11346;SDS011;5728;42.722;23.258;2023-05-16T06:52:50;16.58;;;9.57;;
11346;SDS011;5728;42.722;23.258;2023-05-16T06:55:17;17.08;;;10.70;;
11346;SDS011;5728;42.722;23.258;2023-05-16T06:57:44;19.25;;;8.88;;
11346;SDS011;5728;42.722;23.258;2023-05-16T07:00:11;13.13;;;9.05;;
11346;SDS011;5728;42.722;23.258;2023-05-16T07:02:38;16.73;;;9.25;;
11346;SDS011;5728;42.722;23.258;2023-05-16T07:05:05;14.85;;;8.80;;
11346;SDS011;5728;42.722;23.258;2023-05-16T07:07:34;16.30;;;10.23;;
11346;SDS011;5728;42.722;23.258;2023-05-16T07:10:01;13.57;;;8.70;;
11346;SDS011;5728;42.722;23.258;2023-05-16T07:12:27;12.60;;;8.90;;
11346;SDS011;5728;42.722;23.258;2023-05-16T07:14:55;16.90;;;9.20;;
11346;SDS011;5728;42.722;23.258;2023-05-16T07:17:22;13.73;;;9.20;;
11346;SDS011;5728;42.722;23.258;2023-05-16T07:19:48;13.50;;;8.65;;
11346;SDS011;5728;42.722;23.258;2023-05-16T07:22:15;16.52;;;8.82;;
11346;SDS011;5728;42.722;23.258;2023-05-16T07:24:44;13.50;;;8.07;;
11346;SDS011;5728;42.722;23.258;2023-05-16T07:27:10;11.55;;;7.90;;
11346;SDS011;5728;42.722;23.258;2023-05-16T07:29:37;11.63;;;8.48;;
11346;SDS011;5728;42.722;23.258;2023-05-16T07:32:04;12.73;;;7.40;;
11346;SDS011;5728;42.722;23.258;2023-05-16T07:34:32;15.23;;;7.90;;
11346;SDS011;5728;42.722;23.258;2023-05-16T07:36:58;11.32;;;7.80;;
11346;SDS011;5728;42.722;23.258;2023-05-16T07:39:25;11.05;;;7.78;;
11346;SDS011;5728;42.722;23.258;2023-05-16T07:41:53;14.32;;;7.53;;
11346;SDS011;5728;42.722;23.258;2023-05-16T07:44:20;12.40;;;8.32;;
11346;SDS011;5728;42.722;23.258;2023-05-16T07:46:47;14.63;;;8.07;;
11346;SDS011;5728;42.722;23.258;2023-05-16T07:49:14;12.15;;;7.90;;
11346;SDS011;5728;42.722;23.258;2023-05-16T07:51:41;11.40;;;7.78;;
11346;SDS011;5728;42.722;23.258;2023-05-16T07:54:08;10.77;;;7.68;;
11346;SDS011;5728;42.722;23.258;2023-05-16T07:56:34;13.85;;;7.25;;
11346;SDS011;5728;42.722;23.258;2023-05-16T07:59:03;9.88;;;7.05;;
11346;SDS011;5728;42.722;23.258;2023-05-16T08:01:30;11.88;;;8.07;;
11346;SDS011;5728;42.722;23.258;2023-05-16T08:03:57;12.30;;;7.70;;
11346;SDS011;5728;42.722;23.258;2023-05-16T08:06:24;12.40;;;7.88;;
11346;SDS011;5728;42.722;23.258;2023-05-16T08:08:51;11.00;;;7.85;;
11346;SDS011;5728;42.722;23.258;2023-05-16T08:11:18;11.07;;;7.47;;
11346;SDS011;5728;42.722;23.258;2023-05-16T08:13:46;13.48;;;7.43;;
11346;SDS011;5728;42.722;23.258;2023-05-16T08:16:14;15.77;;;8.18;;
11346;SDS011;5728;42.722;23.258;2023-05-16T08:18:41;17.23;;;9.20;;
11346;SDS011;5728;42.722;23.258;2023-05-16T08:21:08;11.98;;;9.02;;
11346;SDS011;5728;42.722;23.258;2023-05-16T08:23:35;16.35;;;7.63;;
11346;SDS011;5728;42.722;23.258;2023-05-16T08:26:01;11.75;;;7.63;;
11346;SDS011;5728;42.722;23.258;2023-05-16T08:28:28;9.30;;;7.28;;
11346;SDS011;5728;42.722;23.258;2023-05-16T08:30:55;13.57;;;7.80;;
11346;SDS011;5728;42.722;23.258;2023-05-16T08:33:23;11.00;;;7.85;;
11346;SDS011;5728;42.722;23.258;2023-05-16T08:35:50;17.15;;;7.60;;
11346;SDS011;5728;42.722;23.258;2023-05-16T08:38:17;13.20;;;8.10;;
11346;SDS011;5728;42.722;23.258;2023-05-16T08:40:45;10.07;;;7.57;;
11346;SDS011;5728;42.722;23.258;2023-05-16T08:43:12;16.00;;;7.15;;
11346;SDS011;5728;42.722;23.258;2023-05-16T08:45:39;13.27;;;7.60;;
11346;SDS011;5728;42.722;23.258;2023-05-16T08:48:06;21.50;;;7.80;;
11346;SDS011;5728;42.722;23.258;2023-05-16T08:50:36;17.42;;;7.68;;
11346;SDS011;5728;42.722;23.258;2023-05-16T08:53:04;9.38;;;7.40;;
11346;SDS011;5728;42.722;23.258;2023-05-16T08:55:33;20.95;;;6.95;;
11346;SDS011;5728;42.722;23.258;2023-05-16T08:58:01;9.57;;;7.22;;
11346;SDS011;5728;42.722;23.258;2023-05-16T09:00:28;16.60;;;7.88;;
11346;SDS011;5728;42.722;23.258;2023-05-16T09:02:55;12.60;;;7.57;;
11346;SDS011;5728;42.722;23.258;2023-05-16T09:05:23;11.18;;;7.93;;
11346;SDS011;5728;42.722;23.258;2023-05-16T09:07:52;9.85;;;6.57;;
11346;SDS011;5728;42.722;23.258;2023-05-16T09:10:18;10.90;;;7.63;;
11346;SDS011;5728;42.722;23.258;2023-05-16T09:12:46;10.05;;;6.22;;
11346;SDS011;5728;42.722;23.258;2023-05-16T09:15:13;9.82;;;6.75;;
11346;SDS011;5728;42.722;23.258;2023-05-16T09:17:40;11.48;;;7.60;;
11346;SDS011;5728;42.722;23.258;2023-05-16T09:20:10;10.73;;;6.85;;
11346;SDS011;5728;42.722;23.258;2023-05-16T09:22:38;9.32;;;6.00;;
11346;SDS011;5728;42.722;23.258;2023-05-16T09:25:08;16.80;;;7.35;;
11346;SDS011;5728;42.722;23.258;2023-05-16T09:27:41;11.20;;;7.95;;
11346;SDS011;5728;42.722;23.258;2023-05-16T09:30:08;16.95;;;7.35;;
11346;SDS011;5728;42.722;23.258;2023-05-16T09:32:35;8.73;;;6.18;;
11346;SDS011;5728;42.722;23.258;2023-05-16T09:35:09;14.07;;;7.38;;
11346;SDS011;5728;42.722;23.258;2023-05-16T09:37:42;9.10;;;6.00;;
11346;SDS011;5728;42.722;23.258;2023-05-16T09:40:11;7.70;;;6.18;;
11346;SDS011;5728;42.722;23.258;2023-05-16T09:42:38;14.27;;;7.25;;
11346;SDS011;5728;42.722;23.258;2023-05-16T09:45:06;9.15;;;6.95;;
11346;SDS011;5728;42.722;23.258;2023-05-16T09:47:36;8.90;;;7.88;;
11346;SDS011;5728;42.722;23.258;2023-05-16T09:50:10;12.48;;;7.57;;
11346;SDS011;5728;42.722;23.258;2023-05-16T09:52:38;8.95;;;7.20;;
11346;SDS011;5728;42.722;23.258;2023-05-16T09:55:05;14.73;;;8.05;;
11346;SDS011;5728;42.722;23.258;2023-05-16T09:57:35;7.13;;;5.70;;
11346;SDS011;5728;42.722;23.258;2023-05-16T10:00:04;9.43;;;6.28;;
11346;SDS011;5728;42.722;23.258;2023-05-16T10:02:32;10.60;;;6.38;;
11346;SDS011;5728;42.722;23.258;2023-05-16T10:05:00;9.65;;;6.47;;
11346;SDS011;5728;42.722;23.258;2023-05-16T10:07:27;7.78;;;6.03;;
11346;SDS011;5728;42.722;23.258;2023-05-16T10:09:56;18.02;;;6.93;;
11346;SDS011;5728;42.722;23.258;2023-05-16T10:12:26;15.15;;;5.90;;
11346;SDS011;5728;42.722;23.258;2023-05-16T10:14:57;9.63;;;6.35;;
11346;SDS011;5728;42.722;23.258;2023-05-16T10:17:26;14.63;;;6.30;;
11346;SDS011;5728;42.722;23.258;2023-05-16T10:19:56;13.27;;;6.10;;
11346;SDS011;5728;42.722;23.258;2023-05-16T10:22:23;14.60;;;6.40;;
11346;SDS011;5728;42.722;23.258;2023-05-16T10:24:53;10.15;;;6.15;;
11346;SDS011;5728;42.722;23.258;2023-05-16T10:27:26;9.13;;;5.72;;
11346;SDS011;5728;42.722;23.258;2023-05-16T10:29:53;8.75;;;6.43;;
11346;SDS011;5728;42.722;23.258;2023-05-16T10:32:23;7.50;;;5.78;;
11346;SDS011;5728;42.722;23.258;2023-05-16T10:34:51;9.43;;;6.15;;
11346;SDS011;5728;42.722;23.258;2023-05-16T10:37:20;9.80;;;6.30;;
11346;SDS011;5728;42.722;23.258;2023-05-16T10:39:47;9.95;;;6.07;;
11346;SDS011;5728;42.722;23.258;2023-05-16T10:42:14;12.32;;;6.68;;
11346;SDS011;5728;42.722;23.258;2023-05-16T10:44:42;7.63;;;6.43;;
11346;SDS011;5728;42.722;23.258;2023-05-16T10:47:09;12.18;;;7.18;;
11346;SDS011;5728;42.722;23.258;2023-05-16T10:49:38;12.88;;;6.97;;
11346;SDS011;5728;42.722;23.258;2023-05-16T10:52:06;9.88;;;6.95;;
11346;SDS011;5728;42.722;23.258;2023-05-16T10:54:35;14.13;;;6.93;;
11346;SDS011;5728;42.722;23.258;2023-05-16T10:57:03;12.00;;;7.10;;
11346;SDS011;5728;42.722;23.258;2023-05-16T10:59:39;14.88;;;7.05;;
11346;SDS011;5728;42.722;23.258;2023-05-16T11:02:21;22.77;;;8.35;;
11346;SDS011;5728;42.722;23.258;2023-05-16T11:04:50;13.18;;;7.63;;
11346;SDS011;5728;42.722;23.258;2023-05-16T11:07:18;11.35;;;7.15;;
11346;SDS011;5728;42.722;23.258;2023-05-16T11:09:52;13.65;;;6.57;;
11346;SDS011;5728;42.722;23.258;2023-05-16T11:12:35;17.10;;;7.25;;
11346;SDS011;5728;42.722;23.258;2023-05-16T11:15:16;15.90;;;7.57;;
11346;SDS011;5728;42.722;23.258;2023-05-16T11:17:44;12.25;;;7.10;;
11346;SDS011;5728;42.722;23.258;2023-05-16T11:20:24;12.48;;;7.10;;
11346;SDS011;5728;42.722;23.258;2023-05-16T11:22:58;14.30;;;7.78;;
11346;SDS011;5728;42.722;23.258;2023-05-16T11:25:44;12.35;;;7.32;;
11346;SDS011;5728;42.722;23.258;2023-05-16T11:28:13;16.25;;;8.68;;
11346;SDS011;5728;42.722;23.258;2023-05-16T11:30:41;17.50;;;6.13;;
11346;SDS011;5728;42.722;23.258;2023-05-16T11:33:08;12.00;;;7.20;;
11346;SDS011;5728;42.722;23.258;2023-05-16T11:35:38;11.77;;;6.88;;
11346;SDS011;5728;42.722;23.258;2023-05-16T11:38:05;19.48;;;7.63;;
11346;SDS011;5728;42.722;23.258;2023-05-16T11:40:31;12.65;;;7.65;;
11346;SDS011;5728;42.722;23.258;2023-05-16T11:42:59;19.85;;;7.50;;
11346;SDS011;5728;42.722;23.258;2023-05-16T11:45:27;14.25;;;8.23;;
11346;SDS011;5728;42.722;23.258;2023-05-16T11:48:00;19.58;;;8.27;;
11346;SDS011;5728;42.722;23.258;2023-05-16T11:50:28;14.90;;;7.47;;
11346;SDS011;5728;42.722;23.258;2023-05-16T11:52:57;12.23;;;7.10;;
11346;SDS011;5728;42.722;23.258;2023-05-16T11:55:24;12.57;;;8.55;;
11346;SDS011;5728;42.722;23.258;2023-05-16T11:57:52;11.07;;;7.18;;
11346;SDS011;5728;42.722;23.258;2023-05-16T12:00:20;15.68;;;8.20;;
11346;SDS011;5728;42.722;23.258;2023-05-16T12:02:51;11.85;;;7.00;;
11346;SDS011;5728;42.722;23.258;2023-05-16T12:05:19;16.23;;;8.07;;
11346;SDS011;5728;42.722;23.258;2023-05-16T12:07:49;14.95;;;7.88;;
11346;SDS011;5728;42.722;23.258;2023-05-16T12:10:19;17.98;;;8.55;;
11346;SDS011;5728;42.722;23.258;2023-05-16T12:12:47;11.38;;;8.05;;
11346;SDS011;5728;42.722;23.258;2023-05-16T12:15:16;14.68;;;7.07;;
11346;SDS011;5728;42.722;23.258;2023-05-16T12:17:44;20.65;;;7.65;;
11346;SDS011;5728;42.722;23.258;2023-05-16T12:20:12;22.40;;;6.80;;
11346;SDS011;5728;42.722;23.258;2023-05-16T12:22:40;16.58;;;7.15;;
11346;SDS011;5728;42.722;23.258;2023-05-16T12:25:22;11.32;;;6.78;;
11346;SDS011;5728;42.722;23.258;2023-05-16T12:27:51;16.52;;;7.32;;
11346;SDS011;5728;42.722;23.258;2023-05-16T12:30:20;15.15;;;7.88;;
11346;SDS011;5728;42.722;23.258;2023-05-16T12:32:51;12.23;;;7.20;;
11346;SDS011;5728;42.722;23.258;2023-05-16T12:35:19;13.10;;;6.78;;
11346;SDS011;5728;42.722;23.258;2023-05-16T12:37:47;14.63;;;6.88;;
11346;SDS011;5728;42.722;23.258;2023-05-16T12:40:14;10.98;;;6.68;;
11346;SDS011;5728;42.722;23.258;2023-05-16T12:42:43;12.13;;;6.20;;
11346;SDS011;5728;42.722;23.258;2023-05-16T12:45:13;12.35;;;6.68;;
11346;SDS011;5728;42.722;23.258;2023-05-16T12:47:41;16.55;;;6.90;;
11346;SDS011;5728;42.722;23.258;2023-05-16T12:50:08;14.15;;;7.65;;
11346;SDS011;5728;42.722;23.258;2023-05-16T12:52:44;17.05;;;6.43;;
11346;SDS011;5728;42.722;23.258;2023-05-16T12:55:12;14.55;;;7.88;;
11346;SDS011;5728;42.722;23.258;2023-05-16T12:57:40;24.95;;;8.32;;
11346;SDS011;5728;42.722;23.258;2023-05-16T13:00:10;19.85;;;7.93;;
11346;SDS011;5728;42.722;23.258;2023-05-16T13:02:37;18.52;;;7.30;;
11346;SDS011;5728;42.722;23.258;2023-05-16T13:05:04;21.05;;;8.52;;
11346;SDS011;5728;42.722;23.258;2023-05-16T13:07:32;20.98;;;8.38;;
11346;SDS011;5728;42.722;23.258;2023-05-16T13:09:59;17.35;;;8.13;;
11346;SDS011;5728;42.722;23.258;2023-05-16T13:12:26;16.50;;;7.32;;
11346;SDS011;5728;42.722;23.258;2023-05-16T13:14:53;14.75;;;8.02;;
11346;SDS011;5728;42.722;23.258;2023-05-16T13:17:21;18.35;;;8.32;;
11346;SDS011;5728;42.722;23.258;2023-05-16T13:19:49;17.05;;;7.72;;
11346;SDS011;5728;42.722;23.258;2023-05-16T13:22:16;15.57;;;7.95;;
11346;SDS011;5728;42.722;23.258;2023-05-16T13:24:43;17.13;;;7.93;;
11346;SDS011;5728;42.722;23.258;2023-05-16T13:27:09;15.10;;;8.90;;
11346;SDS011;5728;42.722;23.258;2023-05-16T13:29:36;17.75;;;9.55;;
11346;SDS011;5728;42.722;23.258;2023-05-16T13:32:03;19.92;;;8.60;;
11346;SDS011;5728;42.722;23.258;2023-05-16T13:34:33;14.25;;;8.23;;
11346;SDS011;5728;42.722;23.258;2023-05-16T13:36:59;15.40;;;8.40;;
11346;SDS011;5728;42.722;23.258;2023-05-16T13:39:26;21.67;;;8.38;;
11346;SDS011;5728;42.722;23.258;2023-05-16T13:41:53;15.13;;;8.63;;
11346;SDS011;5728;42.722;23.258;2023-05-16T13:44:20;15.38;;;7.30;;
11346;SDS011;5728;42.722;23.258;2023-05-16T13:46:47;12.60;;;8.10;;
11346;SDS011;5728;42.722;23.258;2023-05-16T13:49:14;19.40;;;7.80;;
11346;SDS011;5728;42.722;23.258;2023-05-16T13:51:43;16.23;;;7.30;;
11346;SDS011;5728;42.722;23.258;2023-05-16T13:54:09;14.70;;;8.13;;
11346;SDS011;5728;42.722;23.258;2023-05-16T13:56:36;15.07;;;7.80;;
11346;SDS011;5728;42.722;23.258;2023-05-16T13:59:03;26.67;;;8.00;;
11346;SDS011;5728;42.722;23.258;2023-05-16T14:01:30;13.45;;;7.78;;
11346;SDS011;5728;42.722;23.258;2023-05-16T14:03:56;15.23;;;7.93;;
11346;SDS011;5728;42.722;23.258;2023-05-16T14:06:23;17.65;;;9.00;;
11346;SDS011;5728;42.722;23.258;2023-05-16T14:08:51;15.88;;;8.65;;
11346;SDS011;5728;42.722;23.258;2023-05-16T14:11:18;18.20;;;9.77;;
11346;SDS011;5728;42.722;23.258;2023-05-16T14:13:50;14.10;;;8.85;;
11346;SDS011;5728;42.722;23.258;2023-05-16T14:16:16;18.17;;;10.38;;
11346;SDS011;5728;42.722;23.258;2023-05-16T14:18:43;18.25;;;9.50;;
11346;SDS011;5728;42.722;23.258;2023-05-16T14:21:10;19.15;;;9.85;;
11346;SDS011;5728;42.722;23.258;2023-05-16T14:23:37;21.48;;;12.38;;
11346;SDS011;5728;42.722;23.258;2023-05-16T14:26:05;19.45;;;10.52;;
11346;SDS011;5728;42.722;23.258;2023-05-16T14:28:32;21.75;;;10.63;;
11346;SDS011;5728;42.722;23.258;2023-05-16T14:30:59;18.45;;;10.23;;
11346;SDS011;5728;42.722;23.258;2023-05-16T14:33:26;30.38;;;10.98;;